Hauptseite
METAR-TAF:

METAR-TAF

Flughäfen :

Flughafen El Alto

La Paz, Bolivien

Breite: 16-31S, Länge: 068-11W, Höhe: 4058 m

Beobachtung

Neuester Wetterbericht von vor 51 Minuten, um 05:00 UTC
Wind 2 kt aus unterschiedlichen Richtungen
Temperatur 5°C
Luftfeuchtigkeit 33%
Luftdruck 1039 hPa
Sichtweite 10 km oder mehr

METAR: SLLP 230500Z VRB02KT 9999 NSC 05/M10 Q1039

Zeit: 01:51 (05:51 UTC)

Prognose

Neuester Wetterbericht von vor 1 Stunde und 51 Minuten, um 04:00 UTC
Gültige Prognose vom 23 um 06 UTC bis 24 um 06 UTC
Wind 5 kt aus Nord/Nordost
Sichtweite 10 km oder mehr
Leicht bewölkt in der Höhe von 1500 ft
Übergehend zu
vom 23 um 13 UTC bis 23 um 15 UTC
Wind 10 kt aus West
Übergehend zu
vom 24 um 02 UTC bis 24 um 04 UTC
Wind kt aus Nord

TAF: SLLP 230400Z 2306/2406 02005KT 9999 FEW015 TX16/2319Z TNM01/2311Z BECMG 2313/2315 27010KT BECMG 2402/2404 00000KT

Wetterbeobachtungen und Prognosen von mehr als 4000 Flughäfen (METAR und TAF Bericht).

Die verfügbaren Stationen werden durch gelbe und rote Markierungen auf der Karte dargestellt.

Führen Sie die Maus auf sie, um den Namen der Station zu sehen.

Darauf klicken, um die Beobachtung von Wetterbeobachtungen und Prognosen zu sehen.

Um die Karte zu ändern : klicken Sie auf den grünen Tasten mit einem schwarzen Kreuz Zum Vergrößern, auf den grünen Button mit einem Gedankenstrich zu verkleinern, oder auf die grünen Pfeile für benachbarte Karten.


METAR-TAF: